createdAt,value
2018-11-03T00:01:30.981Z,8.78
2018-11-03T00:03:58.415Z,9.87
2018-11-03T00:06:25.846Z,9.20
2018-11-03T00:08:53.370Z,10.03
2018-11-03T00:11:20.854Z,9.25
2018-11-03T00:13:48.505Z,9.90
2018-11-03T00:16:16.225Z,9.67
2018-11-03T00:18:43.657Z,10.32
2018-11-03T00:21:11.195Z,9.80
2018-11-03T00:23:38.634Z,10.50
2018-11-03T00:26:06.233Z,10.07
2018-11-03T00:28:33.669Z,10.93
2018-11-03T00:31:01.274Z,10.83
2018-11-03T00:33:28.734Z,9.80
2018-11-03T00:35:56.169Z,10.00
2018-11-03T00:38:23.697Z,9.33
2018-11-03T00:40:51.155Z,10.63
2018-11-03T00:43:18.595Z,9.43
2018-11-03T00:45:46.109Z,10.20
2018-11-03T00:48:13.575Z,9.57
2018-11-03T00:50:41.249Z,8.73
2018-11-03T00:53:08.672Z,9.58
2018-11-03T00:55:36.111Z,8.90
2018-11-03T00:58:03.546Z,9.97
2018-11-03T01:00:30.977Z,9.73
2018-11-03T01:02:58.414Z,9.75
2018-11-03T01:05:25.855Z,9.03
2018-11-03T01:07:53.399Z,9.70
2018-11-03T01:10:20.831Z,9.47
2018-11-03T01:12:48.277Z,9.50
2018-11-03T01:15:16.757Z,9.93
2018-11-03T01:17:44.429Z,9.40
2018-11-03T01:20:13.234Z,8.90
2018-11-03T01:22:40.674Z,9.70
2018-11-03T01:25:08.691Z,9.37
2018-11-03T01:27:36.131Z,9.55
2018-11-03T01:30:03.702Z,10.07
2018-11-03T01:32:31.188Z,10.73
2018-11-03T01:34:58.600Z,9.60
2018-11-03T01:37:26.037Z,10.03
2018-11-03T01:39:53.489Z,10.57
2018-11-03T01:42:20.942Z,11.03
2018-11-03T01:44:48.393Z,10.63
2018-11-03T01:47:15.821Z,10.97
2018-11-03T01:49:43.258Z,11.33
2018-11-03T01:52:10.717Z,11.50
2018-11-03T01:54:38.141Z,11.57
2018-11-03T01:57:05.585Z,11.57
2018-11-03T01:59:33.039Z,12.20
2018-11-03T02:02:00.471Z,11.43
2018-11-03T02:04:27.902Z,11.93
2018-11-03T02:06:55.342Z,11.73
2018-11-03T02:09:22.810Z,11.50
2018-11-03T02:11:50.274Z,12.03
2018-11-03T02:14:17.713Z,10.80
2018-11-03T02:16:45.146Z,11.40
2018-11-03T02:19:12.598Z,10.58
2018-11-03T02:21:40.065Z,10.70
2018-11-03T02:24:07.629Z,10.70
2018-11-03T02:26:35.118Z,11.10
2018-11-03T02:29:02.756Z,10.10
2018-11-03T02:31:30.190Z,10.77
2018-11-03T02:33:57.657Z,11.23
2018-11-03T02:36:25.258Z,10.57
2018-11-03T02:38:52.789Z,11.87
2018-11-03T02:41:20.446Z,10.10
2018-11-03T02:43:47.893Z,11.73
2018-11-03T02:46:15.466Z,11.18
2018-11-03T02:48:42.956Z,10.30
2018-11-03T02:51:10.447Z,10.95
2018-11-03T02:53:37.857Z,10.90
2018-11-03T02:56:05.715Z,10.83
2018-11-03T02:58:33.175Z,10.70
2018-11-03T03:01:00.597Z,11.07
2018-11-03T03:03:28.053Z,11.20
2018-11-03T03:05:55.488Z,10.73
2018-11-03T03:08:22.926Z,10.58
2018-11-03T03:10:50.378Z,10.50
2018-11-03T03:13:17.838Z,10.65
2018-11-03T03:15:45.419Z,11.47
2018-11-03T03:18:12.896Z,10.10
2018-11-03T03:20:40.792Z,10.03
2018-11-03T03:23:08.240Z,10.60
2018-11-03T03:25:36.023Z,9.83
2018-11-03T03:28:03.462Z,11.03
2018-11-03T03:30:30.902Z,10.73
2018-11-03T03:32:58.357Z,10.95
2018-11-03T03:35:25.803Z,10.13
2018-11-03T03:37:53.270Z,10.33
2018-11-03T03:40:20.722Z,10.13
2018-11-03T03:42:48.165Z,11.85
2018-11-03T03:45:15.599Z,10.93
2018-11-03T03:47:43.043Z,11.00
2018-11-03T03:50:11.125Z,11.27
2018-11-03T03:52:38.837Z,12.67
2018-11-03T03:55:06.294Z,12.18
2018-11-03T03:57:33.785Z,11.83
2018-11-03T04:00:01.217Z,11.30
2018-11-03T04:02:28.651Z,10.90
2018-11-03T04:04:56.096Z,11.77
2018-11-03T04:07:23.587Z,11.18
2018-11-03T04:09:51.151Z,11.00
2018-11-03T04:12:18.593Z,11.93
2018-11-03T04:14:46.040Z,11.73
2018-11-03T04:17:13.590Z,11.45
2018-11-03T04:19:41.037Z,11.37
2018-11-03T04:22:08.965Z,11.80
2018-11-03T04:24:36.495Z,12.03
2018-11-03T04:27:03.977Z,11.03
2018-11-03T04:29:31.420Z,11.53
2018-11-03T04:31:59.125Z,12.00
2018-11-03T04:34:26.558Z,11.90
2018-11-03T04:36:53.997Z,11.90
2018-11-03T04:39:21.434Z,11.93
2018-11-03T04:41:48.983Z,10.57
2018-11-03T04:44:16.435Z,10.45
2018-11-03T04:46:44.114Z,11.20
2018-11-03T04:49:11.605Z,11.35
2018-11-03T04:51:39.125Z,10.87
2018-11-03T04:54:06.554Z,11.50
2018-11-03T04:56:34.032Z,10.33
2018-11-03T04:59:01.468Z,10.63
2018-11-03T05:01:29.050Z,10.40
2018-11-03T05:03:56.514Z,10.63
2018-11-03T05:06:23.972Z,10.90
2018-11-03T05:08:51.431Z,11.33
2018-11-03T05:11:18.950Z,11.25
2018-11-03T05:13:46.382Z,10.70
2018-11-03T05:16:13.814Z,10.15
2018-11-03T05:18:41.609Z,10.27
2018-11-03T05:21:09.095Z,9.73
2018-11-03T05:23:36.565Z,10.47
2018-11-03T05:26:04.013Z,10.83
2018-11-03T05:28:31.489Z,10.95
2018-11-03T05:30:58.963Z,10.53
2018-11-03T05:33:26.378Z,10.90
2018-11-03T05:35:53.809Z,11.13
2018-11-03T05:38:21.248Z,10.67
2018-11-03T05:40:48.678Z,10.70
2018-11-03T05:43:16.130Z,10.08
2018-11-03T05:45:43.617Z,10.43
2018-11-03T05:48:11.109Z,11.20
2018-11-03T05:50:38.550Z,10.63
2018-11-03T05:53:05.993Z,10.83
2018-11-03T05:55:33.422Z,11.30
2018-11-03T05:58:00.855Z,11.97
2018-11-03T06:00:29.271Z,11.90
2018-11-03T06:02:58.009Z,11.33
2018-11-03T06:05:25.494Z,11.97
2018-11-03T06:07:53.030Z,10.80
2018-11-03T06:10:20.466Z,10.78
2018-11-03T06:12:47.894Z,11.43
2018-11-03T06:15:15.443Z,11.08
2018-11-03T06:17:42.925Z,11.43
2018-11-03T06:20:10.350Z,11.57
2018-11-03T06:22:37.995Z,11.50
2018-11-03T06:25:05.263Z,11.57
2018-11-03T06:27:32.695Z,11.03
2018-11-03T06:30:00.182Z,12.28
2018-11-03T06:32:27.626Z,12.20
2018-11-03T06:34:55.061Z,12.13
2018-11-03T06:37:22.570Z,12.83
2018-11-03T06:39:50.114Z,12.50
2018-11-03T06:42:17.597Z,12.37
2018-11-03T06:44:45.129Z,12.43
2018-11-03T06:47:12.605Z,11.73
2018-11-03T06:49:40.027Z,12.53
2018-11-03T06:52:07.505Z,11.53
2018-11-03T06:54:34.902Z,13.20
2018-11-03T06:57:02.402Z,12.13
2018-11-03T06:59:29.936Z,13.63
2018-11-03T07:01:57.369Z,13.05
2018-11-03T07:04:24.806Z,13.60
2018-11-03T07:06:52.250Z,13.37
2018-11-03T07:09:19.681Z,13.70
2018-11-03T07:11:47.201Z,12.35
2018-11-03T07:14:14.539Z,13.63
2018-11-03T07:16:42.727Z,12.65
2018-11-03T07:19:10.210Z,13.40
2018-11-03T07:21:37.708Z,13.85
2018-11-03T07:24:05.080Z,13.53
2018-11-03T07:26:32.513Z,12.47
2018-11-03T07:29:00.102Z,13.43
2018-11-03T07:31:27.620Z,13.30
2018-11-03T07:33:55.138Z,12.27
2018-11-03T07:36:22.657Z,12.77
2018-11-03T07:38:50.097Z,13.18
2018-11-03T07:41:17.623Z,12.17
2018-11-03T07:43:45.024Z,11.83
2018-11-03T07:46:12.458Z,13.50
2018-11-03T07:48:39.973Z,12.53
2018-11-03T07:51:07.366Z,13.80
2018-11-03T07:53:34.862Z,13.32
2018-11-03T07:56:02.323Z,13.30
2018-11-03T07:58:29.765Z,12.85
2018-11-03T08:00:57.201Z,12.77
2018-11-03T08:03:24.706Z,12.65
2018-11-03T08:05:52.258Z,12.47
2018-11-03T08:08:19.823Z,12.15
2018-11-03T08:10:47.309Z,12.77
2018-11-03T08:13:14.753Z,12.57
2018-11-03T08:15:42.279Z,12.97
2018-11-03T08:18:09.705Z,13.10
2018-11-03T08:20:37.146Z,11.97
2018-11-03T08:23:04.589Z,13.53
2018-11-03T08:25:32.041Z,13.68
2018-11-03T08:27:59.485Z,13.33
2018-11-03T08:30:26.929Z,12.82
2018-11-03T08:32:54.423Z,13.20
2018-11-03T08:35:21.909Z,13.03
2018-11-03T08:37:49.369Z,12.53
2018-11-03T08:40:16.790Z,13.00
2018-11-03T08:42:44.337Z,13.40
2018-11-03T08:45:12.166Z,13.38
2018-11-03T08:47:39.627Z,14.50
2018-11-03T08:50:07.106Z,14.10
2018-11-03T08:52:34.548Z,13.58
2018-11-03T08:55:01.998Z,13.03
2018-11-03T08:57:29.438Z,13.22
2018-11-03T08:59:57.111Z,13.53
2018-11-03T09:02:24.332Z,12.25
2018-11-03T09:04:51.783Z,12.43
2018-11-03T09:07:19.224Z,12.80
2018-11-03T09:09:46.679Z,13.40
2018-11-03T09:12:14.187Z,12.67
2018-11-03T09:14:41.688Z,11.87
2018-11-03T09:17:09.126Z,11.60
2018-11-03T09:19:36.613Z,12.80
2018-11-03T09:22:04.154Z,12.43
2018-11-03T09:24:31.606Z,14.33
2018-11-03T09:26:59.060Z,13.17
2018-11-03T09:29:26.498Z,12.20
2018-11-03T09:31:54.028Z,12.93
2018-11-03T09:34:21.477Z,13.68
2018-11-03T09:36:48.947Z,13.83
2018-11-03T09:39:16.566Z,13.75
2018-11-03T09:41:43.846Z,14.10
2018-11-03T09:44:11.354Z,12.65
2018-11-03T09:46:38.838Z,14.50
2018-11-03T09:49:06.285Z,13.90
2018-11-03T09:51:33.736Z,13.47
2018-11-03T09:54:01.182Z,13.50
2018-11-03T09:56:28.624Z,13.80
2018-11-03T09:58:56.074Z,13.63
2018-11-03T10:01:23.494Z,13.50
2018-11-03T10:03:50.955Z,12.75
2018-11-03T10:06:18.443Z,13.97
2018-11-03T10:08:45.870Z,13.70
2018-11-03T10:11:13.306Z,13.67
2018-11-03T10:13:40.758Z,13.40
2018-11-03T10:16:08.351Z,13.40
2018-11-03T10:18:35.677Z,13.13
2018-11-03T10:21:03.110Z,13.80
2018-11-03T10:23:30.547Z,13.40
2018-11-03T10:25:57.992Z,14.70
2018-11-03T10:28:25.417Z,14.40
2018-11-03T10:30:52.931Z,14.20
2018-11-03T10:33:20.385Z,13.75
2018-11-03T10:35:47.818Z,14.33
2018-11-03T10:38:15.253Z,13.48
2018-11-03T10:40:42.802Z,14.23
2018-11-03T10:43:10.240Z,13.75
2018-11-03T10:45:37.716Z,13.67
2018-11-03T10:48:05.241Z,14.35
2018-11-03T10:50:32.781Z,13.23
2018-11-03T10:53:00.239Z,13.77
2018-11-03T10:55:27.700Z,13.37
2018-11-03T10:57:55.105Z,13.90
2018-11-03T11:00:28.081Z,14.07
2018-11-03T11:03:01.047Z,13.17
2018-11-03T11:05:33.947Z,13.70
2018-11-03T11:08:06.879Z,14.43
2018-11-03T11:10:39.773Z,14.00
2018-11-03T11:13:09.913Z,14.27
2018-11-03T11:15:37.405Z,14.90
2018-11-03T11:18:04.823Z,14.20
2018-11-03T11:20:32.266Z,14.33
2018-11-03T11:22:59.714Z,14.13
2018-11-03T11:25:27.379Z,14.10
2018-11-03T11:27:54.846Z,13.62
2018-11-03T11:30:22.307Z,14.20
2018-11-03T11:32:49.848Z,14.55
2018-11-03T11:35:17.351Z,13.63
2018-11-03T11:37:44.968Z,13.85
2018-11-03T11:40:12.341Z,15.13
2018-11-03T11:42:39.790Z,15.30
2018-11-03T11:45:07.263Z,15.43
2018-11-03T11:47:34.705Z,15.50
2018-11-03T11:50:02.237Z,14.70
2018-11-03T11:52:29.672Z,16.07
2018-11-03T11:54:57.286Z,15.65
2018-11-03T11:57:24.705Z,15.57
2018-11-03T11:59:52.182Z,15.60
2018-11-03T12:02:19.692Z,15.73
2018-11-03T12:04:47.062Z,16.07
2018-11-03T12:07:14.534Z,15.00
2018-11-03T12:09:42.006Z,15.30
2018-11-03T12:12:09.529Z,14.70
2018-11-03T12:14:37.096Z,15.40
2018-11-03T12:17:04.583Z,14.80
2018-11-03T12:19:31.994Z,14.13
2018-11-03T12:21:59.450Z,14.70
2018-11-03T12:24:26.911Z,15.78
2018-11-03T12:26:54.681Z,15.03
2018-11-03T12:29:22.145Z,15.17
2018-11-03T12:31:49.762Z,14.43
2018-11-03T12:34:17.233Z,14.67
2018-11-03T12:36:44.671Z,15.72
2018-11-03T12:39:12.135Z,14.60
2018-11-03T12:41:39.579Z,15.30
2018-11-03T12:44:07.064Z,15.30
2018-11-03T12:46:34.870Z,14.35
2018-11-03T12:49:02.376Z,15.00
2018-11-03T12:51:29.907Z,14.70
2018-11-03T12:53:57.362Z,14.83
2018-11-03T12:56:24.811Z,15.67
2018-11-03T12:58:52.271Z,15.32
2018-11-03T13:01:19.840Z,15.87
2018-11-03T13:03:47.394Z,14.75
2018-11-03T13:06:14.884Z,16.50
2018-11-03T13:08:42.722Z,15.70
2018-11-03T13:11:10.283Z,15.77
2018-11-03T13:13:37.733Z,15.08
2018-11-03T13:16:05.226Z,15.37
2018-11-03T13:18:32.829Z,16.17
2018-11-03T13:21:00.253Z,16.60
2018-11-03T13:23:27.861Z,16.85
2018-11-03T13:25:55.363Z,15.57
2018-11-03T13:28:22.799Z,16.50
2018-11-03T13:30:50.249Z,16.17
2018-11-03T13:33:17.804Z,16.20
2018-11-03T13:35:45.270Z,16.15
2018-11-03T13:38:12.725Z,15.83
2018-11-03T13:40:40.194Z,15.75
2018-11-03T13:43:07.631Z,16.60
2018-11-03T13:45:35.082Z,16.00
2018-11-03T13:48:02.549Z,15.47
2018-11-03T13:50:30.000Z,14.78
2018-11-03T13:52:57.438Z,14.97
2018-11-03T13:55:25.070Z,15.38
2018-11-03T13:57:52.517Z,16.00
2018-11-03T14:00:20.123Z,16.23
2018-11-03T14:02:48.398Z,14.70
2018-11-03T14:05:15.833Z,15.40
2018-11-03T14:07:43.276Z,15.23
2018-11-03T14:10:12.029Z,16.50
2018-11-03T14:12:39.507Z,15.50
2018-11-03T14:15:07.127Z,15.83
2018-11-03T14:17:34.665Z,16.20
2018-11-03T14:20:02.121Z,15.45
2018-11-03T14:22:29.560Z,15.37
2018-11-03T14:24:57.067Z,15.07
2018-11-03T14:27:24.510Z,15.67
2018-11-03T14:29:51.967Z,14.97
2018-11-03T14:32:19.421Z,15.27
2018-11-03T14:34:46.905Z,16.87
2018-11-03T14:37:14.353Z,15.68
2018-11-03T14:39:41.794Z,15.60
2018-11-03T14:42:09.297Z,15.88
2018-11-03T14:44:36.738Z,15.23
2018-11-03T14:47:04.201Z,14.63
2018-11-03T14:49:31.782Z,14.73
2018-11-03T14:51:59.317Z,14.05
2018-11-03T14:54:26.787Z,14.83
2018-11-03T14:56:54.238Z,14.07
2018-11-03T14:59:21.685Z,14.13
2018-11-03T15:01:49.131Z,13.47
2018-11-03T15:04:16.593Z,12.27
2018-11-03T15:06:44.038Z,13.53
2018-11-03T15:09:11.497Z,12.82
2018-11-03T15:11:38.982Z,12.27
2018-11-03T15:14:07.319Z,12.18
2018-11-03T15:16:34.580Z,14.00
2018-11-03T15:19:02.086Z,13.83
2018-11-03T15:21:29.550Z,14.23
2018-11-03T15:23:56.995Z,14.33
2018-11-03T15:26:24.490Z,14.03
2018-11-03T15:28:51.978Z,14.23
2018-11-03T15:31:19.446Z,14.73
2018-11-03T15:33:46.882Z,14.38
2018-11-03T15:36:14.340Z,13.30
2018-11-03T15:38:41.771Z,14.45
2018-11-03T15:41:09.230Z,13.40
2018-11-03T15:43:36.670Z,12.82
2018-11-03T15:46:04.106Z,13.67
2018-11-03T15:48:31.601Z,11.43
2018-11-03T15:50:59.032Z,12.90
2018-11-03T15:53:26.465Z,11.20
2018-11-03T15:55:53.916Z,11.53
2018-11-03T15:58:21.366Z,11.18
2018-11-03T16:00:48.815Z,11.37
2018-11-03T16:03:16.514Z,12.30
2018-11-03T16:05:43.959Z,12.03
2018-11-03T16:08:11.409Z,12.03
2018-11-03T16:10:38.902Z,11.20
2018-11-03T16:13:06.342Z,11.70
2018-11-03T16:15:33.791Z,11.70
2018-11-03T16:18:01.239Z,12.73
2018-11-03T16:20:28.961Z,12.50
2018-11-03T16:22:56.439Z,12.20
2018-11-03T16:25:23.937Z,12.70
2018-11-03T16:27:51.525Z,12.85
2018-11-03T16:30:19.585Z,13.57
2018-11-03T16:32:47.153Z,13.63
2018-11-03T16:35:14.541Z,13.47
2018-11-03T16:37:42.326Z,13.47
2018-11-03T16:40:11.310Z,14.13
2018-11-03T16:42:38.766Z,12.83
2018-11-03T16:45:06.752Z,13.03
2018-11-03T16:47:34.373Z,12.82
2018-11-03T16:50:01.826Z,13.13
2018-11-03T16:52:29.321Z,12.73
2018-11-03T16:54:56.704Z,12.53
2018-11-03T16:57:24.232Z,13.03
2018-11-03T16:59:51.663Z,12.33
2018-11-03T17:02:19.106Z,12.13
2018-11-03T17:04:47.256Z,12.83
2018-11-03T17:07:14.706Z,14.10
2018-11-03T17:09:42.143Z,13.00
2018-11-03T17:12:09.590Z,12.63
2018-11-03T17:14:37.043Z,12.73
2018-11-03T17:17:04.543Z,12.23
2018-11-03T17:19:32.102Z,12.60
2018-11-03T17:21:59.564Z,13.53
2018-11-03T17:24:27.010Z,14.43
2018-11-03T17:26:54.481Z,12.97
2018-11-03T17:29:21.934Z,12.80
2018-11-03T17:31:49.387Z,12.93
2018-11-03T17:34:16.953Z,11.68
2018-11-03T17:36:44.391Z,13.33
2018-11-03T17:39:12.360Z,12.30
2018-11-03T17:41:39.837Z,12.30
2018-11-03T17:44:07.339Z,13.47
2018-11-03T17:46:34.962Z,12.07
2018-11-03T17:49:02.402Z,12.57
2018-11-03T17:51:29.869Z,14.00
2018-11-03T17:53:57.329Z,13.03
2018-11-03T17:56:24.766Z,13.90
2018-11-03T17:58:52.230Z,13.00
2018-11-03T18:01:19.786Z,13.20
2018-11-03T18:03:47.145Z,14.10
2018-11-03T18:06:14.584Z,13.43
2018-11-03T18:08:42.010Z,13.05
2018-11-03T18:11:09.447Z,13.63
2018-11-03T18:13:37.267Z,14.00
2018-11-03T18:16:04.711Z,14.47
2018-11-03T18:18:32.222Z,14.40
2018-11-03T18:20:59.655Z,13.72
2018-11-03T18:23:27.669Z,14.87
2018-11-03T18:25:55.154Z,14.50
2018-11-03T18:28:22.611Z,13.62
2018-11-03T18:30:50.074Z,14.30
2018-11-03T18:33:17.537Z,13.77
2018-11-03T18:35:44.885Z,15.40
2018-11-03T18:38:12.352Z,14.75
2018-11-03T18:40:39.771Z,15.70
2018-11-03T18:43:07.301Z,15.60
2018-11-03T18:45:34.739Z,14.20
2018-11-03T18:48:02.193Z,14.50
2018-11-03T18:50:29.638Z,13.93
2018-11-03T18:52:57.159Z,14.65
2018-11-03T18:55:24.641Z,15.00
2018-11-03T18:57:52.045Z,15.25
2018-11-03T19:00:19.546Z,14.97
2018-11-03T19:02:46.982Z,15.13
2018-11-03T19:05:14.429Z,14.03
2018-11-03T19:07:41.878Z,14.58
2018-11-03T19:10:09.787Z,13.27
2018-11-03T19:12:37.324Z,14.13
2018-11-03T19:15:04.778Z,15.30
2018-11-03T19:17:32.216Z,14.77
2018-11-03T19:19:59.665Z,15.00
2018-11-03T19:22:27.094Z,14.60
2018-11-03T19:24:54.898Z,13.58
2018-11-03T19:27:22.337Z,14.63
2018-11-03T19:29:49.940Z,13.67
2018-11-03T19:32:17.538Z,13.65
2018-11-03T19:34:44.943Z,13.87
2018-11-03T19:37:12.393Z,13.10
2018-11-03T19:39:39.849Z,13.97
2018-11-03T19:42:07.305Z,13.83
2018-11-03T19:44:34.769Z,14.37
2018-11-03T19:47:02.210Z,13.70
2018-11-03T19:49:29.691Z,14.03
2018-11-03T19:51:57.158Z,14.90
2018-11-03T19:54:24.618Z,13.73
2018-11-03T19:56:52.054Z,13.72
2018-11-03T19:59:19.490Z,14.13
2018-11-03T20:01:46.926Z,14.30
2018-11-03T20:04:14.362Z,14.67
2018-11-03T20:06:41.806Z,15.20
2018-11-03T20:09:09.342Z,14.00
2018-11-03T20:11:36.796Z,15.08
2018-11-03T20:14:04.456Z,14.57
2018-11-03T20:16:31.926Z,13.17
2018-11-03T20:18:59.412Z,14.10
2018-11-03T20:21:26.914Z,13.73
2018-11-03T20:23:54.362Z,14.00
2018-11-03T20:26:21.946Z,13.37
2018-11-03T20:28:49.313Z,12.82
2018-11-03T20:31:16.758Z,13.10
2018-11-03T20:33:44.202Z,12.30
2018-11-03T20:36:11.646Z,13.37
2018-11-03T20:38:39.099Z,12.80
2018-11-03T20:41:06.542Z,12.67
2018-11-03T20:43:33.986Z,11.73
2018-11-03T20:46:01.430Z,11.63
2018-11-03T20:48:28.866Z,12.33
2018-11-03T20:51:01.590Z,11.47
2018-11-03T20:53:29.030Z,12.30
2018-11-03T20:55:56.472Z,12.80
2018-11-03T20:58:23.927Z,11.87
2018-11-03T21:00:51.440Z,12.05
2018-11-03T21:03:18.862Z,11.70
2018-11-03T21:05:46.302Z,12.00
2018-11-03T21:08:13.859Z,12.47
2018-11-03T21:10:41.223Z,11.37
2018-11-03T21:13:08.666Z,12.67
2018-11-03T21:15:36.118Z,12.50
2018-11-03T21:18:03.817Z,12.03
2018-11-03T21:20:31.322Z,12.57
2018-11-03T21:22:58.758Z,12.10
2018-11-03T21:25:26.206Z,12.80
2018-11-03T21:27:53.647Z,12.33
2018-11-03T21:30:21.082Z,13.13
2018-11-03T21:32:48.630Z,12.58
2018-11-03T21:35:16.053Z,12.60
2018-11-03T21:37:43.498Z,12.80
2018-11-03T21:40:11.011Z,12.93
2018-11-03T21:42:38.582Z,12.73
2018-11-03T21:45:06.022Z,13.43
2018-11-03T21:47:33.471Z,12.40
2018-11-03T21:50:00.909Z,12.33
2018-11-03T21:52:28.477Z,13.77
2018-11-03T21:54:55.926Z,12.58
2018-11-03T21:57:23.385Z,14.03
2018-11-03T21:59:50.837Z,13.30
2018-11-03T22:02:18.398Z,13.00
2018-11-03T22:04:46.013Z,12.85
2018-11-03T22:07:13.459Z,13.47
2018-11-03T22:09:40.902Z,13.30
2018-11-03T22:12:08.348Z,13.40
2018-11-03T22:14:35.803Z,12.80
2018-11-03T22:17:03.253Z,13.28
2018-11-03T22:19:30.688Z,13.40
2018-11-03T22:21:58.134Z,13.03
2018-11-03T22:24:25.570Z,14.10
2018-11-03T22:26:53.015Z,12.78
2018-11-03T22:29:20.465Z,13.10
2018-11-03T22:31:47.930Z,13.08
2018-11-03T22:34:15.430Z,13.57
2018-11-03T22:36:42.869Z,14.53
2018-11-03T22:39:10.301Z,13.80
2018-11-03T22:41:38.138Z,13.43
2018-11-03T22:44:05.581Z,14.40
2018-11-03T22:46:33.062Z,13.27
2018-11-03T22:49:01.206Z,14.00
2018-11-03T22:51:28.748Z,13.50
2018-11-03T22:53:56.109Z,14.07
2018-11-03T22:56:23.630Z,12.83
2018-11-03T22:58:51.074Z,13.93
2018-11-03T23:01:18.542Z,13.65
2018-11-03T23:03:45.989Z,13.90
2018-11-03T23:06:13.453Z,14.63
2018-11-03T23:08:40.886Z,14.53
2018-11-03T23:11:08.329Z,14.15
2018-11-03T23:13:35.769Z,14.97
2018-11-03T23:16:03.207Z,14.58
2018-11-03T23:18:30.646Z,14.60
2018-11-03T23:20:58.094Z,14.17
2018-11-03T23:23:25.549Z,15.13
2018-11-03T23:25:53.012Z,16.15
2018-11-03T23:28:20.455Z,16.07
2018-11-03T23:30:47.946Z,15.93
2018-11-03T23:33:15.406Z,15.30
2018-11-03T23:35:42.846Z,15.53
2018-11-03T23:38:10.343Z,15.77
2018-11-03T23:40:37.774Z,15.30
2018-11-03T23:43:05.331Z,14.87
2018-11-03T23:45:32.870Z,15.10
2018-11-03T23:48:00.306Z,15.13
2018-11-03T23:50:27.766Z,14.87
2018-11-03T23:52:55.189Z,14.87
2018-11-03T23:55:22.627Z,14.93
2018-11-03T23:57:50.078Z,16.07
